sensor_id;sensor_type;location;lat;lon;timestamp;temperature;humidity
4364;DHT22;15337;48.202;12.770;2022-08-11T00:01:44;17.00;81.80
4364;DHT22;15337;48.202;12.770;2022-08-11T00:04:11;17.10;82.40
4364;DHT22;15337;48.202;12.770;2022-08-11T00:06:40;17.10;81.60
4364;DHT22;15337;48.202;12.770;2022-08-11T00:09:09;17.20;80.80
4364;DHT22;15337;48.202;12.770;2022-08-11T00:11:41;17.20;80.70
4364;DHT22;15337;48.202;12.770;2022-08-11T00:14:13;17.30;80.40
4364;DHT22;15337;48.202;12.770;2022-08-11T00:16:41;17.30;80.50
4364;DHT22;15337;48.202;12.770;2022-08-11T00:19:12;17.30;80.50
4364;DHT22;15337;48.202;12.770;2022-08-11T00:21:45;17.40;79.80
4364;DHT22;15337;48.202;12.770;2022-08-11T00:24:12;17.50;79.50
4364;DHT22;15337;48.202;12.770;2022-08-11T00:26:46;17.50;80.20
4364;DHT22;15337;48.202;12.770;2022-08-11T00:29:13;17.50;79.60
4364;DHT22;15337;48.202;12.770;2022-08-11T00:31:46;17.50;80.20
4364;DHT22;15337;48.202;12.770;2022-08-11T00:34:17;17.50;80.10
4364;DHT22;15337;48.202;12.770;2022-08-11T00:36:48;17.50;79.80
4364;DHT22;15337;48.202;12.770;2022-08-11T00:39:18;17.50;79.60
4364;DHT22;15337;48.202;12.770;2022-08-11T00:41:58;17.60;79.30
4364;DHT22;15337;48.202;12.770;2022-08-11T00:44:47;17.50;79.20
4364;DHT22;15337;48.202;12.770;2022-08-11T00:47:27;17.60;79.40
4364;DHT22;15337;48.202;12.770;2022-08-11T00:50:08;17.60;79.40
4364;DHT22;15337;48.202;12.770;2022-08-11T00:52:49;17.60;79.10
4364;DHT22;15337;48.202;12.770;2022-08-11T00:55:41;17.60;79.20
4364;DHT22;15337;48.202;12.770;2022-08-11T00:58:55;17.60;79.90
4364;DHT22;15337;48.202;12.770;2022-08-11T01:01:38;17.60;79.60
4364;DHT22;15337;48.202;12.770;2022-08-11T01:04:29;17.60;79.90
4364;DHT22;15337;48.202;12.770;2022-08-11T01:10:22;17.60;79.40
4364;DHT22;15337;48.202;12.770;2022-08-11T01:13:13;17.70;78.80
4364;DHT22;15337;48.202;12.770;2022-08-11T01:16:01;17.60;79.30
4364;DHT22;15337;48.202;12.770;2022-08-11T01:18:56;17.60;79.30
4364;DHT22;15337;48.202;12.770;2022-08-11T01:28:36;17.60;80.10
4364;DHT22;15337;48.202;12.770;2022-08-11T01:41:09;17.60;79.50
4364;DHT22;15337;48.202;12.770;2022-08-11T01:44:03;17.60;79.00
4364;DHT22;15337;48.202;12.770;2022-08-11T01:46:55;17.60;79.00
4364;DHT22;15337;48.202;12.770;2022-08-11T01:49:26;17.60;79.60
4364;DHT22;15337;48.202;12.770;2022-08-11T01:52:07;17.60;79.20
4364;DHT22;15337;48.202;12.770;2022-08-11T01:54:45;17.60;79.30
4364;DHT22;15337;48.202;12.770;2022-08-11T01:57:27;17.60;79.40
4364;DHT22;15337;48.202;12.770;2022-08-11T02:00:05;17.60;79.40
4364;DHT22;15337;48.202;12.770;2022-08-11T02:02:40;17.60;79.10
4364;DHT22;15337;48.202;12.770;2022-08-11T02:05:41;17.60;79.70
4364;DHT22;15337;48.202;12.770;2022-08-11T02:08:19;17.60;79.30
4364;DHT22;15337;48.202;12.770;2022-08-11T02:10:55;17.50;79.70
4364;DHT22;15337;48.202;12.770;2022-08-11T02:13:46;17.50;79.20
4364;DHT22;15337;48.202;12.770;2022-08-11T02:16:20;17.50;79.20
4364;DHT22;15337;48.202;12.770;2022-08-11T02:18:59;17.50;79.50
4364;DHT22;15337;48.202;12.770;2022-08-11T02:21:51;17.50;79.40
4364;DHT22;15337;48.202;12.770;2022-08-11T02:24:45;17.50;79.30
4364;DHT22;15337;48.202;12.770;2022-08-11T02:27:18;17.40;79.40
4364;DHT22;15337;48.202;12.770;2022-08-11T02:29:51;17.40;79.50
4364;DHT22;15337;48.202;12.770;2022-08-11T02:32:28;17.40;79.80
4364;DHT22;15337;48.202;12.770;2022-08-11T02:35:18;17.40;80.00
4364;DHT22;15337;48.202;12.770;2022-08-11T02:38:03;17.40;80.40
4364;DHT22;15337;48.202;12.770;2022-08-11T02:40:40;17.30;80.10
4364;DHT22;15337;48.202;12.770;2022-08-11T02:43:22;17.30;80.10
4364;DHT22;15337;48.202;12.770;2022-08-11T02:45:55;17.30;80.20
4364;DHT22;15337;48.202;12.770;2022-08-11T02:48:45;17.20;79.90
4364;DHT22;15337;48.202;12.770;2022-08-11T02:51:38;17.20;80.60
4364;DHT22;15337;48.202;12.770;2022-08-11T02:54:13;17.20;80.90
4364;DHT22;15337;48.202;12.770;2022-08-11T02:56:47;17.20;80.50
4364;DHT22;15337;48.202;12.770;2022-08-11T02:59:26;17.20;80.50
4364;DHT22;15337;48.202;12.770;2022-08-11T03:02:19;17.20;80.40
4364;DHT22;15337;48.202;12.770;2022-08-11T03:04:58;17.10;80.80
4364;DHT22;15337;48.202;12.770;2022-08-11T03:07:30;17.10;81.30
4364;DHT22;15337;48.202;12.770;2022-08-11T03:10:04;17.10;81.80
4364;DHT22;15337;48.202;12.770;2022-08-11T03:12:42;17.10;81.70
4364;DHT22;15337;48.202;12.770;2022-08-11T03:15:31;17.00;82.30
4364;DHT22;15337;48.202;12.770;2022-08-11T03:18:24;17.00;81.90
4364;DHT22;15337;48.202;12.770;2022-08-11T03:21:01;17.10;81.90
4364;DHT22;15337;48.202;12.770;2022-08-11T03:23:36;17.00;82.10
4364;DHT22;15337;48.202;12.770;2022-08-11T03:26:12;17.00;82.30
4364;DHT22;15337;48.202;12.770;2022-08-11T03:28:46;17.00;82.60
4364;DHT22;15337;48.202;12.770;2022-08-11T03:31:24;16.90;83.10
4364;DHT22;15337;48.202;12.770;2022-08-11T03:33:55;16.90;83.10
4364;DHT22;15337;48.202;12.770;2022-08-11T03:39:36;16.90;83.10
4364;DHT22;15337;48.202;12.770;2022-08-11T03:42:15;16.90;83.20
4364;DHT22;15337;48.202;12.770;2022-08-11T03:44:49;16.90;84.20
4364;DHT22;15337;48.202;12.770;2022-08-11T03:50:21;16.80;84.30
4364;DHT22;15337;48.202;12.770;2022-08-11T03:53:04;16.80;84.30
4364;DHT22;15337;48.202;12.770;2022-08-11T03:58:48;16.80;84.70
4364;DHT22;15337;48.202;12.770;2022-08-11T04:02:03;16.80;84.70
4364;DHT22;15337;48.202;12.770;2022-08-11T04:11:23;16.60;86.60
4364;DHT22;15337;48.202;12.770;2022-08-11T04:14:11;16.60;87.10
4364;DHT22;15337;48.202;12.770;2022-08-11T04:17:21;16.60;87.90
4364;DHT22;15337;48.202;12.770;2022-08-11T04:20:17;16.60;88.10
4364;DHT22;15337;48.202;12.770;2022-08-11T04:22:58;16.50;89.00
4364;DHT22;15337;48.202;12.770;2022-08-11T04:26:01;16.50;89.20
4364;DHT22;15337;48.202;12.770;2022-08-11T04:28:43;16.60;89.70
4364;DHT22;15337;48.202;12.770;2022-08-11T04:31:33;16.60;89.80
4364;DHT22;15337;48.202;12.770;2022-08-11T04:47:00;16.80;88.90
4364;DHT22;15337;48.202;12.770;2022-08-11T04:53:07;16.90;89.30
4364;DHT22;15337;48.202;12.770;2022-08-11T04:56:10;17.00;89.30
4364;DHT22;15337;48.202;12.770;2022-08-11T05:05:21;17.50;87.30
4364;DHT22;15337;48.202;12.770;2022-08-11T05:14:28;17.80;84.30
4364;DHT22;15337;48.202;12.770;2022-08-11T05:17:20;18.00;84.20
4364;DHT22;15337;48.202;12.770;2022-08-11T05:20:09;18.10;82.60
4364;DHT22;15337;48.202;12.770;2022-08-11T05:22:54;18.20;82.00
4364;DHT22;15337;48.202;12.770;2022-08-11T05:25:43;18.40;81.40
4364;DHT22;15337;48.202;12.770;2022-08-11T05:28:33;18.50;81.20
4364;DHT22;15337;48.202;12.770;2022-08-11T05:31:23;18.60;80.90
4364;DHT22;15337;48.202;12.770;2022-08-11T05:34:11;18.60;79.10
4364;DHT22;15337;48.202;12.770;2022-08-11T05:37:04;18.80;79.60
4364;DHT22;15337;48.202;12.770;2022-08-11T05:39:40;18.80;78.70
4364;DHT22;15337;48.202;12.770;2022-08-11T05:42:26;18.90;78.10
4364;DHT22;15337;48.202;12.770;2022-08-11T05:45:13;19.10;77.70
4364;DHT22;15337;48.202;12.770;2022-08-11T05:48:00;19.20;75.90
4364;DHT22;15337;48.202;12.770;2022-08-11T05:50:50;19.30;75.70
4364;DHT22;15337;48.202;12.770;2022-08-11T05:53:44;19.50;74.50
4364;DHT22;15337;48.202;12.770;2022-08-11T05:56:29;19.60;75.10
4364;DHT22;15337;48.202;12.770;2022-08-11T05:58:57;19.80;72.70
4364;DHT22;15337;48.202;12.770;2022-08-11T06:01:25;19.80;72.20
4364;DHT22;15337;48.202;12.770;2022-08-11T06:03:56;20.00;72.90
4364;DHT22;15337;48.202;12.770;2022-08-11T06:07:03;20.00;73.00
4364;DHT22;15337;48.202;12.770;2022-08-11T06:09:35;20.10;71.50
4364;DHT22;15337;48.202;12.770;2022-08-11T06:12:05;20.20;70.80
4364;DHT22;15337;48.202;12.770;2022-08-11T06:14:34;20.30;70.70
4364;DHT22;15337;48.202;12.770;2022-08-11T06:17:02;20.40;70.70
4364;DHT22;15337;48.202;12.770;2022-08-11T06:19:37;20.50;69.90
4364;DHT22;15337;48.202;12.770;2022-08-11T06:22:07;20.70;70.00
4364;DHT22;15337;48.202;12.770;2022-08-11T06:24:37;20.60;67.70
4364;DHT22;15337;48.202;12.770;2022-08-11T06:27:06;20.80;68.10
4364;DHT22;15337;48.202;12.770;2022-08-11T06:29:35;21.00;68.30
4364;DHT22;15337;48.202;12.770;2022-08-11T06:32:05;20.90;66.60
4364;DHT22;15337;48.202;12.770;2022-08-11T06:34:48;21.00;66.90
4364;DHT22;15337;48.202;12.770;2022-08-11T06:37:22;21.00;66.20
4364;DHT22;15337;48.202;12.770;2022-08-11T06:40:02;21.10;66.30
4364;DHT22;15337;48.202;12.770;2022-08-11T06:42:47;21.30;66.20
4364;DHT22;15337;48.202;12.770;2022-08-11T06:45:27;21.30;65.90
4364;DHT22;15337;48.202;12.770;2022-08-11T06:47:55;21.30;64.50
4364;DHT22;15337;48.202;12.770;2022-08-11T06:50:28;21.30;64.70
4364;DHT22;15337;48.202;12.770;2022-08-11T06:53:16;21.40;64.10
4364;DHT22;15337;48.202;12.770;2022-08-11T06:55:45;21.50;66.30
4364;DHT22;15337;48.202;12.770;2022-08-11T06:58:32;21.60;64.30
4364;DHT22;15337;48.202;12.770;2022-08-11T07:01:21;21.60;64.60
4364;DHT22;15337;48.202;12.770;2022-08-11T07:03:55;21.80;65.00
4364;DHT22;15337;48.202;12.770;2022-08-11T07:06:37;21.90;64.60
4364;DHT22;15337;48.202;12.770;2022-08-11T07:09:27;22.10;65.00
4364;DHT22;15337;48.202;12.770;2022-08-11T07:12:43;22.30;63.40
4364;DHT22;15337;48.202;12.770;2022-08-11T07:15:31;22.30;61.60
4364;DHT22;15337;48.202;12.770;2022-08-11T07:18:10;22.30;62.60
4364;DHT22;15337;48.202;12.770;2022-08-11T07:21:10;22.40;61.60
4364;DHT22;15337;48.202;12.770;2022-08-11T07:23:58;22.50;61.20
4364;DHT22;15337;48.202;12.770;2022-08-11T07:26:49;22.70;63.00
4364;DHT22;15337;48.202;12.770;2022-08-11T07:29:34;22.80;60.40
4364;DHT22;15337;48.202;12.770;2022-08-11T07:32:14;22.80;61.20
4364;DHT22;15337;48.202;12.770;2022-08-11T07:34:49;23.00;60.40
4364;DHT22;15337;48.202;12.770;2022-08-11T07:37:19;23.10;61.10
4364;DHT22;15337;48.202;12.770;2022-08-11T07:39:49;23.30;60.80
4364;DHT22;15337;48.202;12.770;2022-08-11T07:42:21;23.50;59.70
4364;DHT22;15337;48.202;12.770;2022-08-11T07:44:49;23.60;60.40
4364;DHT22;15337;48.202;12.770;2022-08-11T07:47:36;23.60;59.70
4364;DHT22;15337;48.202;12.770;2022-08-11T07:50:21;23.80;58.80
4364;DHT22;15337;48.202;12.770;2022-08-11T07:53:06;23.90;58.00
4364;DHT22;15337;48.202;12.770;2022-08-11T07:55:35;24.00;58.10
4364;DHT22;15337;48.202;12.770;2022-08-11T07:58:03;24.00;57.40
4364;DHT22;15337;48.202;12.770;2022-08-11T08:00:52;24.00;57.70
4364;DHT22;15337;48.202;12.770;2022-08-11T08:03:38;24.20;58.00
4364;DHT22;15337;48.202;12.770;2022-08-11T08:06:23;24.40;57.10
4364;DHT22;15337;48.202;12.770;2022-08-11T08:09:09;24.50;56.80
4364;DHT22;15337;48.202;12.770;2022-08-11T08:11:55;24.50;57.00
4364;DHT22;15337;48.202;12.770;2022-08-11T08:14:40;24.80;55.70
4364;DHT22;15337;48.202;12.770;2022-08-11T08:17:25;24.90;57.20
4364;DHT22;15337;48.202;12.770;2022-08-11T08:20:12;24.80;54.50
4364;DHT22;15337;48.202;12.770;2022-08-11T08:22:40;24.80;54.30
4364;DHT22;15337;48.202;12.770;2022-08-11T08:25:09;25.10;55.00
4364;DHT22;15337;48.202;12.770;2022-08-11T08:27:38;25.20;54.00
4364;DHT22;15337;48.202;12.770;2022-08-11T08:30:09;25.40;55.00
4364;DHT22;15337;48.202;12.770;2022-08-11T08:32:56;25.50;53.80
4364;DHT22;15337;48.202;12.770;2022-08-11T08:35:25;25.50;52.70
4364;DHT22;15337;48.202;12.770;2022-08-11T08:37:55;25.70;52.50
4364;DHT22;15337;48.202;12.770;2022-08-11T08:40:22;25.90;53.10
4364;DHT22;15337;48.202;12.770;2022-08-11T08:42:53;26.00;50.80
4364;DHT22;15337;48.202;12.770;2022-08-11T08:45:22;26.30;52.40
4364;DHT22;15337;48.202;12.770;2022-08-11T08:47:55;26.20;50.60
4364;DHT22;15337;48.202;12.770;2022-08-11T08:50:25;26.30;50.80
4364;DHT22;15337;48.202;12.770;2022-08-11T08:53:13;26.30;51.00
4364;DHT22;15337;48.202;12.770;2022-08-11T08:55:41;26.30;50.70
4364;DHT22;15337;48.202;12.770;2022-08-11T08:58:13;26.40;49.80
4364;DHT22;15337;48.202;12.770;2022-08-11T09:00:44;26.70;49.60
4364;DHT22;15337;48.202;12.770;2022-08-11T09:03:12;26.60;49.10
4364;DHT22;15337;48.202;12.770;2022-08-11T09:05:39;26.70;49.80
4364;DHT22;15337;48.202;12.770;2022-08-11T09:08:07;26.70;48.30
4364;DHT22;15337;48.202;12.770;2022-08-11T09:10:35;26.90;49.60
4364;DHT22;15337;48.202;12.770;2022-08-11T09:13:04;27.00;49.90
4364;DHT22;15337;48.202;12.770;2022-08-11T09:15:34;27.00;48.30
4364;DHT22;15337;48.202;12.770;2022-08-11T09:18:02;27.00;48.70
4364;DHT22;15337;48.202;12.770;2022-08-11T09:20:33;27.10;48.60
4364;DHT22;15337;48.202;12.770;2022-08-11T09:23:03;27.40;48.00
4364;DHT22;15337;48.202;12.770;2022-08-11T09:25:49;27.60;48.50
4364;DHT22;15337;48.202;12.770;2022-08-11T09:28:34;27.50;47.30
4364;DHT22;15337;48.202;12.770;2022-08-11T09:31:05;27.70;46.70
4364;DHT22;15337;48.202;12.770;2022-08-11T09:33:33;27.60;45.70
4364;DHT22;15337;48.202;12.770;2022-08-11T09:36:01;27.60;45.40
4364;DHT22;15337;48.202;12.770;2022-08-11T09:38:50;27.80;46.50
4364;DHT22;15337;48.202;12.770;2022-08-11T09:41:35;27.80;46.70
4364;DHT22;15337;48.202;12.770;2022-08-11T09:44:04;27.90;47.30
4364;DHT22;15337;48.202;12.770;2022-08-11T09:46:52;28.00;45.20
4364;DHT22;15337;48.202;12.770;2022-08-11T09:49:22;28.10;47.10
4364;DHT22;15337;48.202;12.770;2022-08-11T09:51:49;28.20;45.40
4364;DHT22;15337;48.202;12.770;2022-08-11T09:54:18;28.20;44.30
4364;DHT22;15337;48.202;12.770;2022-08-11T09:56:46;28.30;44.20
4364;DHT22;15337;48.202;12.770;2022-08-11T09:59:31;28.40;43.40
4364;DHT22;15337;48.202;12.770;2022-08-11T10:02:01;28.40;44.40
4364;DHT22;15337;48.202;12.770;2022-08-11T10:04:34;28.40;43.80
4364;DHT22;15337;48.202;12.770;2022-08-11T10:07:04;28.30;44.20
4364;DHT22;15337;48.202;12.770;2022-08-11T10:09:37;28.40;43.00
4364;DHT22;15337;48.202;12.770;2022-08-11T10:12:08;28.60;42.60
4364;DHT22;15337;48.202;12.770;2022-08-11T10:14:41;28.60;44.00
4364;DHT22;15337;48.202;12.770;2022-08-11T10:17:31;28.60;44.50
4364;DHT22;15337;48.202;12.770;2022-08-11T10:19:59;28.80;43.10
4364;DHT22;15337;48.202;12.770;2022-08-11T10:22:32;28.90;42.80
4364;DHT22;15337;48.202;12.770;2022-08-11T10:28:38;28.90;42.60
4364;DHT22;15337;48.202;12.770;2022-08-11T10:31:06;28.90;41.80
4364;DHT22;15337;48.202;12.770;2022-08-11T10:33:52;28.90;42.70
4364;DHT22;15337;48.202;12.770;2022-08-11T10:36:26;29.00;41.70
4364;DHT22;15337;48.202;12.770;2022-08-11T10:38:55;29.00;41.00
4364;DHT22;15337;48.202;12.770;2022-08-11T10:41:23;28.90;40.90
4364;DHT22;15337;48.202;12.770;2022-08-11T10:44:08;28.90;41.40
4364;DHT22;15337;48.202;12.770;2022-08-11T10:46:37;29.10;41.40
4364;DHT22;15337;48.202;12.770;2022-08-11T10:49:24;29.10;41.20
4364;DHT22;15337;48.202;12.770;2022-08-11T10:51:54;29.30;40.60
4364;DHT22;15337;48.202;12.770;2022-08-11T10:54:40;29.30;41.80
4364;DHT22;15337;48.202;12.770;2022-08-11T10:57:25;29.00;41.80
4364;DHT22;15337;48.202;12.770;2022-08-11T11:00:11;29.10;42.20
4364;DHT22;15337;48.202;12.770;2022-08-11T11:02:41;29.10;40.60
4364;DHT22;15337;48.202;12.770;2022-08-11T11:05:13;29.20;40.80
4364;DHT22;15337;48.202;12.770;2022-08-11T11:07:46;28.90;40.80
4364;DHT22;15337;48.202;12.770;2022-08-11T11:10:16;28.90;39.80
4364;DHT22;15337;48.202;12.770;2022-08-11T11:12:44;29.00;40.40
4364;DHT22;15337;48.202;12.770;2022-08-11T11:15:31;29.20;42.50
4364;DHT22;15337;48.202;12.770;2022-08-11T11:18:20;29.30;40.60
4364;DHT22;15337;48.202;12.770;2022-08-11T11:20:53;29.10;42.40
4364;DHT22;15337;48.202;12.770;2022-08-11T11:23:25;29.10;40.40
4364;DHT22;15337;48.202;12.770;2022-08-11T11:26:07;29.00;41.00
4364;DHT22;15337;48.202;12.770;2022-08-11T11:29:26;29.30;42.00
4364;DHT22;15337;48.202;12.770;2022-08-11T11:37:50;29.20;42.10
4364;DHT22;15337;48.202;12.770;2022-08-11T11:40:19;29.10;41.40
4364;DHT22;15337;48.202;12.770;2022-08-11T11:42:49;29.20;42.60
4364;DHT22;15337;48.202;12.770;2022-08-11T11:45:18;29.30;43.20
4364;DHT22;15337;48.202;12.770;2022-08-11T11:47:46;29.20;42.90
4364;DHT22;15337;48.202;12.770;2022-08-11T11:50:22;29.30;42.80
4364;DHT22;15337;48.202;12.770;2022-08-11T11:52:52;29.30;42.80
4364;DHT22;15337;48.202;12.770;2022-08-11T11:55:22;29.40;41.70
4364;DHT22;15337;48.202;12.770;2022-08-11T11:57:51;29.50;43.60
4364;DHT22;15337;48.202;12.770;2022-08-11T12:00:36;29.50;42.60
4364;DHT22;15337;48.202;12.770;2022-08-11T12:03:22;29.60;43.80
4364;DHT22;15337;48.202;12.770;2022-08-11T12:05:51;29.50;42.80
4364;DHT22;15337;48.202;12.770;2022-08-11T12:08:21;29.40;41.40
4364;DHT22;15337;48.202;12.770;2022-08-11T12:10:52;29.40;40.40
4364;DHT22;15337;48.202;12.770;2022-08-11T12:13:41;29.50;41.00
4364;DHT22;15337;48.202;12.770;2022-08-11T12:16:09;29.60;40.20
4364;DHT22;15337;48.202;12.770;2022-08-11T12:18:36;29.70;43.10
4364;DHT22;15337;48.202;12.770;2022-08-11T12:21:05;29.90;43.80
4364;DHT22;15337;48.202;12.770;2022-08-11T12:23:37;29.90;40.90
4364;DHT22;15337;48.202;12.770;2022-08-11T12:26:22;29.90;40.60
4364;DHT22;15337;48.202;12.770;2022-08-11T12:29:20;29.90;40.80
4364;DHT22;15337;48.202;12.770;2022-08-11T12:31:52;29.90;39.40
4364;DHT22;15337;48.202;12.770;2022-08-11T12:34:20;30.00;40.00
4364;DHT22;15337;48.202;12.770;2022-08-11T12:36:52;30.00;39.60
4364;DHT22;15337;48.202;12.770;2022-08-11T12:39:23;30.30;41.40
4364;DHT22;15337;48.202;12.770;2022-08-11T12:42:13;30.30;40.20
4364;DHT22;15337;48.202;12.770;2022-08-11T12:45:00;30.20;40.00
4364;DHT22;15337;48.202;12.770;2022-08-11T12:47:48;30.10;39.80
4364;DHT22;15337;48.202;12.770;2022-08-11T12:50:33;30.30;38.90
4364;DHT22;15337;48.202;12.770;2022-08-11T12:53:33;30.20;37.30
4364;DHT22;15337;48.202;12.770;2022-08-11T12:56:05;30.10;36.20
4364;DHT22;15337;48.202;12.770;2022-08-11T12:58:51;30.30;40.00
4364;DHT22;15337;48.202;12.770;2022-08-11T13:01:19;30.50;36.90
4364;DHT22;15337;48.202;12.770;2022-08-11T13:04:04;30.50;37.80
4364;DHT22;15337;48.202;12.770;2022-08-11T13:06:49;30.60;38.30
4364;DHT22;15337;48.202;12.770;2022-08-11T13:09:17;30.60;39.10
4364;DHT22;15337;48.202;12.770;2022-08-11T13:11:47;30.80;36.90
4364;DHT22;15337;48.202;12.770;2022-08-11T13:14:32;30.80;37.60
4364;DHT22;15337;48.202;12.770;2022-08-11T13:17:00;31.10;39.90
4364;DHT22;15337;48.202;12.770;2022-08-11T13:19:46;31.30;37.60
4364;DHT22;15337;48.202;12.770;2022-08-11T13:22:15;31.30;37.60
4364;DHT22;15337;48.202;12.770;2022-08-11T13:24:44;31.40;38.00
4364;DHT22;15337;48.202;12.770;2022-08-11T13:27:16;31.30;37.00
4364;DHT22;15337;48.202;12.770;2022-08-11T13:29:45;31.00;36.00
4364;DHT22;15337;48.202;12.770;2022-08-11T13:32:13;31.10;35.50
4364;DHT22;15337;48.202;12.770;2022-08-11T13:34:41;31.30;38.00
4364;DHT22;15337;48.202;12.770;2022-08-11T13:37:12;31.30;35.60
4364;DHT22;15337;48.202;12.770;2022-08-11T13:39:42;31.40;36.90
4364;DHT22;15337;48.202;12.770;2022-08-11T13:42:14;31.50;36.30
4364;DHT22;15337;48.202;12.770;2022-08-11T13:44:45;31.80;37.70
4364;DHT22;15337;48.202;12.770;2022-08-11T13:47:14;31.50;35.00
4364;DHT22;15337;48.202;12.770;2022-08-11T13:49:42;31.40;35.80
4364;DHT22;15337;48.202;12.770;2022-08-11T13:52:12;31.60;36.10
4364;DHT22;15337;48.202;12.770;2022-08-11T13:54:40;31.60;35.00
4364;DHT22;15337;48.202;12.770;2022-08-11T13:57:09;31.70;34.60
4364;DHT22;15337;48.202;12.770;2022-08-11T13:59:38;31.90;35.30
4364;DHT22;15337;48.202;12.770;2022-08-11T14:02:11;32.00;37.10
4364;DHT22;15337;48.202;12.770;2022-08-11T14:04:41;32.00;35.50
4364;DHT22;15337;48.202;12.770;2022-08-11T14:07:10;32.00;37.00
4364;DHT22;15337;48.202;12.770;2022-08-11T14:09:41;32.00;36.20
4364;DHT22;15337;48.202;12.770;2022-08-11T14:12:13;31.90;36.70
4364;DHT22;15337;48.202;12.770;2022-08-11T14:15:02;31.60;35.40
4364;DHT22;15337;48.202;12.770;2022-08-11T14:17:31;31.40;34.90
4364;DHT22;15337;48.202;12.770;2022-08-11T14:20:02;31.50;34.80
4364;DHT22;15337;48.202;12.770;2022-08-11T14:22:30;31.50;34.60
4364;DHT22;15337;48.202;12.770;2022-08-11T14:24:57;31.70;35.40
4364;DHT22;15337;48.202;12.770;2022-08-11T14:27:25;31.80;35.70
4364;DHT22;15337;48.202;12.770;2022-08-11T14:29:55;31.80;36.00
4364;DHT22;15337;48.202;12.770;2022-08-11T14:32:24;31.80;34.60
4364;DHT22;15337;48.202;12.770;2022-08-11T14:34:52;31.80;35.20
4364;DHT22;15337;48.202;12.770;2022-08-11T14:37:21;31.80;35.70
4364;DHT22;15337;48.202;12.770;2022-08-11T14:39:51;31.90;34.70
4364;DHT22;15337;48.202;12.770;2022-08-11T14:42:20;31.70;34.90
4364;DHT22;15337;48.202;12.770;2022-08-11T14:45:08;31.70;34.70
4364;DHT22;15337;48.202;12.770;2022-08-11T14:47:58;31.50;32.30
4364;DHT22;15337;48.202;12.770;2022-08-11T14:50:28;31.50;34.70
4364;DHT22;15337;48.202;12.770;2022-08-11T14:52:58;31.30;32.90
4364;DHT22;15337;48.202;12.770;2022-08-11T14:55:26;31.30;34.70
4364;DHT22;15337;48.202;12.770;2022-08-11T14:58:15;31.00;34.00
4364;DHT22;15337;48.202;12.770;2022-08-11T15:00:43;30.90;35.60
4364;DHT22;15337;48.202;12.770;2022-08-11T15:03:13;30.70;35.00
4364;DHT22;15337;48.202;12.770;2022-08-11T15:05:46;30.40;34.10
4364;DHT22;15337;48.202;12.770;2022-08-11T15:08:17;30.10;33.20
4364;DHT22;15337;48.202;12.770;2022-08-11T15:10:45;30.00;35.20
4364;DHT22;15337;48.202;12.770;2022-08-11T15:13:15;30.00;34.50
4364;DHT22;15337;48.202;12.770;2022-08-11T15:15:43;29.80;34.80
4364;DHT22;15337;48.202;12.770;2022-08-11T15:18:30;29.80;36.60
4364;DHT22;15337;48.202;12.770;2022-08-11T15:20:58;29.90;36.30
4364;DHT22;15337;48.202;12.770;2022-08-11T15:23:43;29.80;37.00
4364;DHT22;15337;48.202;12.770;2022-08-11T15:26:31;29.80;36.50
4364;DHT22;15337;48.202;12.770;2022-08-11T15:29:19;29.50;37.40
4364;DHT22;15337;48.202;12.770;2022-08-11T15:32:08;29.40;37.80
4364;DHT22;15337;48.202;12.770;2022-08-11T15:34:57;29.30;37.40
4364;DHT22;15337;48.202;12.770;2022-08-11T15:37:43;29.30;37.40
4364;DHT22;15337;48.202;12.770;2022-08-11T15:40:16;29.40;38.70
4364;DHT22;15337;48.202;12.770;2022-08-11T15:43:06;29.30;38.30
4364;DHT22;15337;48.202;12.770;2022-08-11T15:45:53;29.30;37.90
4364;DHT22;15337;48.202;12.770;2022-08-11T15:48:28;29.20;39.50
4364;DHT22;15337;48.202;12.770;2022-08-11T15:51:00;29.10;38.90
4364;DHT22;15337;48.202;12.770;2022-08-11T15:53:32;29.10;39.30
4364;DHT22;15337;48.202;12.770;2022-08-11T15:56:01;29.10;38.40
4364;DHT22;15337;48.202;12.770;2022-08-11T15:58:33;29.20;38.50
4364;DHT22;15337;48.202;12.770;2022-08-11T16:01:20;29.30;38.30
4364;DHT22;15337;48.202;12.770;2022-08-11T16:04:08;29.30;37.60
4364;DHT22;15337;48.202;12.770;2022-08-11T16:06:47;29.30;37.70
4364;DHT22;15337;48.202;12.770;2022-08-11T16:09:19;29.10;36.90
4364;DHT22;15337;48.202;12.770;2022-08-11T16:11:48;29.10;38.20
4364;DHT22;15337;48.202;12.770;2022-08-11T16:14:15;29.10;37.30
4364;DHT22;15337;48.202;12.770;2022-08-11T16:17:02;29.00;37.30
4364;DHT22;15337;48.202;12.770;2022-08-11T16:19:30;29.10;36.90
4364;DHT22;15337;48.202;12.770;2022-08-11T16:22:02;29.00;36.90
4364;DHT22;15337;48.202;12.770;2022-08-11T16:24:33;28.80;37.30
4364;DHT22;15337;48.202;12.770;2022-08-11T16:27:02;28.80;38.50
4364;DHT22;15337;48.202;12.770;2022-08-11T16:29:30;28.80;38.20
4364;DHT22;15337;48.202;12.770;2022-08-11T16:31:58;28.70;37.40
4364;DHT22;15337;48.202;12.770;2022-08-11T16:34:48;28.70;37.70
4364;DHT22;15337;48.202;12.770;2022-08-11T16:37:36;28.40;38.30
4364;DHT22;15337;48.202;12.770;2022-08-11T16:40:21;28.30;38.30
4364;DHT22;15337;48.202;12.770;2022-08-11T16:42:49;28.20;38.00
4364;DHT22;15337;48.202;12.770;2022-08-11T16:45:35;28.30;38.90
4364;DHT22;15337;48.202;12.770;2022-08-11T16:48:21;28.20;38.60
4364;DHT22;15337;48.202;12.770;2022-08-11T16:50:50;28.10;39.10
4364;DHT22;15337;48.202;12.770;2022-08-11T16:53:18;28.10;39.60
4364;DHT22;15337;48.202;12.770;2022-08-11T16:55:46;28.10;39.70
4364;DHT22;15337;48.202;12.770;2022-08-11T16:58:14;28.10;38.60
4364;DHT22;15337;48.202;12.770;2022-08-11T17:01:00;28.20;38.30
4364;DHT22;15337;48.202;12.770;2022-08-11T17:03:29;28.20;38.00
4364;DHT22;15337;48.202;12.770;2022-08-11T17:06:17;28.10;37.80
4364;DHT22;15337;48.202;12.770;2022-08-11T17:09:03;27.90;37.90
4364;DHT22;15337;48.202;12.770;2022-08-11T17:11:52;27.90;38.70
4364;DHT22;15337;48.202;12.770;2022-08-11T17:14:42;27.80;38.80
4364;DHT22;15337;48.202;12.770;2022-08-11T17:17:13;27.80;39.80
4364;DHT22;15337;48.202;12.770;2022-08-11T17:19:44;27.80;39.00
4364;DHT22;15337;48.202;12.770;2022-08-11T17:22:13;27.70;39.60
4364;DHT22;15337;48.202;12.770;2022-08-11T17:25:00;27.60;39.90
4364;DHT22;15337;48.202;12.770;2022-08-11T17:27:29;27.50;39.50
4364;DHT22;15337;48.202;12.770;2022-08-11T17:30:00;27.40;39.90
4364;DHT22;15337;48.202;12.770;2022-08-11T17:32:30;27.40;40.30
4364;DHT22;15337;48.202;12.770;2022-08-11T17:35:19;27.40;40.30
4364;DHT22;15337;48.202;12.770;2022-08-11T17:38:06;27.30;39.70
4364;DHT22;15337;48.202;12.770;2022-08-11T17:40:36;27.20;40.80
4364;DHT22;15337;48.202;12.770;2022-08-11T17:43:06;27.00;40.30
4364;DHT22;15337;48.202;12.770;2022-08-11T17:45:54;27.00;39.80
4364;DHT22;15337;48.202;12.770;2022-08-11T17:48:41;26.90;39.70
4364;DHT22;15337;48.202;12.770;2022-08-11T17:51:11;26.90;39.90